Atlantic - Newfoundland: Past 24 Hour Conditions

 

St. John's Int'l Airport

07:30 AM NDT 31 October 2014
This table is a summary of hourly weather conditions for the past 24 hours.
Date / Time
(NDT)
Wind(knots) Conditions Visibility(km) Pressure(kPa) Air tempC) Relative humidity(%) Dew pointC)
31 October 2014
7:30 WNW 9 Mostly Cloudy 24 101.0 6 88 4
6:30 NW 10 Mostly Cloudy 24 100.9 6 90 5
5:30 NW 6 Mostly Cloudy 24 100.8 7 88 5
4:30 WNW 10 Mostly Cloudy 24 100.8 9 95 8
3:30 W 7 Mostly Cloudy 24 100.7 9 95 8
2:30 W 11 Mostly Cloudy 24 100.7 9 95 8
1:30 W 13 Cloudy 24 100.6 9 93 8
0:30 WSW 14 Cloudy 24 100.6 10 92 9
30 October 2014
23:30 WSW 12 Light Rainshower 19 100.6 12 97 11
22:30 WSW 12 gust 19 Light Rainshower 6 100.6 13 99 12
21:30 WSW 14 Light Rainshower 5 100.6 13 99 13
20:30 WSW 19 gust 25 Light Rainshower 19 100.6 14 98 13
19:30 WSW 17 gust 27 Mostly Cloudy 24 100.6 14 97 14
18:30 WSW 19 gust 30 Mostly Cloudy 13 100.6 14 98 14
17:30 WSW 17 gust 22 Mostly Cloudy 24 100.6 14 97 14
16:30 SW 20 gust 28 Light Rainshower 24 100.6 15 97 14
15:30 SW 21 gust 30 Light Rainshower 24 100.6 15 95 14
14:30 WSW 21 gust 32 Cloudy 16 100.6 16 94 15
13:30 SW 27 gust 37 Light Rainshower 19 100.7 15 95 15
12:30 SW 19 gust 27 Cloudy 16 100.8 16 95 15
11:30 SW 19 gust 32 Cloudy 19 100.9 16 96 15
10:30 SW 13 gust 26 Light Drizzle 16 100.9 15 97 14
9:30 SW 20 Light Rainshower 21 101.0 14 N/A N/A
8:30 SW 16 gust 27 Light Rainshower 24 101.0 12 97 12
7:30 SSW 15 gust 25 Cloudy 24 101.1 10 97 10
 
Map of Atlantic - Newfoundland marine weather areas Southwestern Grand Banks - 44138 Banquereau - 44139 Tail of the Bank - 44140 Nickerson Bank - 44251 Northeast Burgeo Bank - 44255 Blanc-Sablon Airport Cap Whittle Chevery Natashquan Airport Heath Point Miscou Island Grand Étang Ingonish Beach North Mountain St.Paul Island J.A. Douglas McCurdy Sydney Airport Charlottetown Airport East Point North Cape Argentia Bonavista Burgeo Cape Race Corner Brook Daniel's Harbour Englee Ferolle Point La Scie Port aux Basques Rocky Harbour Sagona Island St. Anthony Airport St. John's Int'l Airport St. Lawrence Stephenville Airport Twillingate Winterland Wreckhouse Cartwright Airport Mary's Harbour Grates Cove Pool's Island Marticot Island Long Pond Îles de la Madeleine Airport
Legend: buoyBuoy land stationLand Station